createdAt,value
2017-03-13T19:15:17.433Z,36.50
2017-03-13T19:16:19.218Z,36.69
2017-03-13T19:17:21.279Z,36.79
2017-03-13T19:18:23.170Z,36.59
2017-03-13T19:19:25.248Z,36.79
2017-03-13T19:20:27.096Z,36.40
2017-03-13T19:21:29.005Z,36.88
2017-03-13T19:22:31.019Z,36.30
2017-03-13T19:23:32.856Z,36.69
2017-03-13T19:24:34.746Z,36.11
2017-03-13T19:25:36.514Z,36.50
2017-03-13T19:26:38.163Z,36.59
2017-03-13T19:27:39.923Z,36.40
2017-03-13T19:28:41.518Z,36.59
2017-03-13T19:29:50.070Z,36.61
2017-03-13T19:30:51.668Z,37.48
2017-03-13T19:51:25.011Z,39.26
2017-03-13T19:52:26.810Z,38.68
2017-03-13T19:53:29.170Z,38.87
2017-03-13T19:54:31.159Z,38.49
2017-03-13T19:55:33.869Z,38.49
2017-03-13T19:56:35.730Z,38.78
2017-03-13T19:57:37.445Z,39.16
2017-03-13T19:58:39.587Z,39.45
2017-03-13T20:00:55.056Z,39.26
2017-03-13T20:01:56.986Z,38.87
2017-03-13T20:03:01.046Z,39.06
2017-03-13T20:04:02.796Z,39.16
2017-03-13T20:05:05.694Z,39.06
2017-03-13T20:06:12.104Z,38.97
2017-03-13T20:11:23.629Z,39.26
2017-03-13T20:12:25.066Z,39.64
2017-03-13T20:13:27.729Z,39.26
2017-03-13T20:14:32.133Z,39.16
2017-03-13T20:15:33.680Z,39.64
2017-03-13T20:16:35.208Z,39.06
2017-03-13T20:17:36.812Z,39.06
2017-03-13T20:18:38.463Z,39.06
2017-03-13T20:19:40.174Z,38.97
2017-03-13T20:20:41.693Z,38.97
2017-03-13T20:21:43.227Z,38.97
2017-03-13T20:22:44.983Z,39.06
2017-03-13T20:23:46.653Z,39.06
2017-03-13T20:24:48.311Z,39.16
2017-03-13T20:25:49.924Z,39.06
2017-03-13T20:26:53.008Z,39.06
2017-03-13T20:27:57.274Z,39.06
2017-03-13T20:29:01.355Z,39.16
2017-03-13T20:30:03.192Z,39.06
2017-03-13T20:31:07.220Z,39.16
2017-03-13T20:32:09.806Z,39.16
2017-03-13T20:33:12.759Z,38.97
2017-03-13T20:34:16.150Z,38.97
2017-03-13T20:35:17.993Z,39.06
2017-03-13T20:36:19.772Z,38.97
2017-03-13T20:37:23.338Z,39.16
2017-03-13T20:38:26.029Z,39.06
2017-03-13T20:39:27.806Z,39.16
2017-03-13T20:40:29.795Z,39.16
2017-03-13T20:41:32.591Z,38.97
2017-03-13T20:42:36.933Z,39.16
2017-03-13T20:43:39.247Z,39.26
2017-03-13T20:44:41.526Z,39.16
2017-03-13T20:45:43.263Z,39.16
2017-03-13T20:46:47.452Z,39.26
2017-03-13T20:47:52.208Z,39.26
2017-03-13T20:48:53.982Z,39.26
2017-03-13T20:49:58.241Z,39.36
2017-03-13T20:51:03.164Z,39.36
2017-03-13T20:52:05.113Z,39.36
2017-03-13T20:53:07.991Z,39.45
2017-03-13T20:54:12.010Z,39.36
2017-03-13T20:55:15.038Z,39.36
2017-03-13T20:56:18.270Z,39.45
2017-03-13T20:57:22.558Z,39.54
2017-03-13T20:58:24.381Z,39.64
2017-03-13T20:59:27.345Z,39.64
2017-03-13T21:00:29.340Z,39.74
2017-03-13T21:01:31.168Z,39.54
2017-03-13T21:02:33.087Z,39.45
2017-03-13T21:03:34.847Z,39.54
2017-03-13T21:04:36.791Z,39.54
2017-03-13T21:05:38.493Z,39.64
2017-03-13T21:06:40.582Z,39.74
2017-03-13T21:07:42.307Z,39.64
2017-03-13T21:08:44.117Z,39.74
2017-03-13T21:09:46.070Z,39.84
2017-03-13T21:10:47.832Z,39.84
2017-03-13T21:11:49.791Z,39.74
2017-03-13T21:12:51.617Z,39.74
2017-03-13T21:13:53.363Z,39.74
2017-03-13T21:14:55.101Z,39.74
2017-03-13T21:15:56.786Z,39.74
2017-03-13T21:16:58.562Z,39.64
2017-03-13T21:18:00.294Z,39.74
2017-03-13T21:19:01.948Z,39.64
2017-03-13T21:20:04.468Z,39.74
2017-03-13T21:21:06.213Z,39.74
2017-03-13T21:22:08.075Z,39.74
2017-03-13T21:23:09.676Z,39.64
2017-03-13T21:24:11.333Z,39.74
2017-03-13T21:25:14.147Z,39.74
2017-03-13T21:26:15.636Z,39.74
2017-03-13T21:27:17.203Z,39.64
2017-03-13T21:28:20.290Z,39.64
2017-03-13T21:29:22.811Z,39.64
2017-03-13T21:30:25.486Z,39.74
2017-03-13T21:31:27.147Z,39.64
2017-03-13T21:32:28.922Z,39.64
2017-03-13T21:33:32.337Z,39.74
2017-03-13T21:34:33.977Z,39.74
2017-03-13T21:35:36.998Z,39.74
2017-03-13T21:36:39.815Z,39.74
2017-03-13T21:37:41.727Z,39.74
2017-03-13T21:38:43.432Z,39.74
2017-03-13T21:39:45.132Z,39.84
2017-03-13T21:40:46.787Z,39.74
2017-03-13T21:41:49.076Z,39.84
2017-03-13T21:42:50.885Z,39.74
2017-03-13T21:44:31.876Z,39.61
2017-03-13T21:45:33.452Z,39.70
2017-03-13T21:46:35.064Z,39.61
2017-03-13T21:47:36.631Z,39.79
2017-03-13T21:48:38.476Z,39.61
2017-03-13T21:49:40.219Z,39.79
2017-03-13T21:50:41.885Z,39.61
2017-03-13T21:51:43.519Z,39.61
2017-03-13T21:52:45.137Z,39.70
2017-03-13T21:53:46.966Z,39.70
2017-03-13T21:54:48.710Z,39.61
2017-03-13T21:55:50.958Z,39.61
2017-03-13T21:56:53.008Z,39.61
2017-03-13T21:57:54.757Z,39.89
2017-03-13T21:58:56.659Z,39.61
2017-03-13T21:59:58.492Z,39.89
2017-03-13T22:01:00.391Z,39.61
2017-03-13T22:02:02.157Z,39.61
2017-03-13T22:03:03.678Z,40.09
2017-03-13T22:04:05.614Z,39.99
2017-03-13T22:05:07.435Z,39.99
2017-03-13T22:06:09.243Z,40.09
2017-03-13T22:07:10.917Z,39.99
2017-03-13T22:08:12.633Z,40.09
2017-03-13T22:09:14.261Z,40.16
2017-03-13T22:10:16.025Z,40.19
2017-03-13T22:11:17.949Z,40.09
2017-03-13T22:12:19.577Z,39.89
2017-03-13T22:13:21.765Z,40.09
2017-03-13T22:14:23.382Z,39.89
2017-03-13T22:15:25.026Z,39.99
2017-03-13T22:17:06.470Z,39.70
2017-03-13T22:18:08.139Z,39.59
2017-03-13T22:19:09.709Z,40.36
2017-03-13T22:20:11.847Z,39.79
2017-03-13T22:21:14.241Z,39.61
2017-03-13T22:22:15.958Z,39.70
2017-03-13T22:23:18.257Z,39.89
2017-03-13T22:24:20.020Z,39.70
2017-03-13T22:25:22.024Z,39.70
2017-03-13T22:26:24.299Z,39.70
2017-03-13T22:27:26.570Z,39.70
2017-03-13T22:28:28.346Z,40.07
2017-03-13T22:29:30.197Z,39.70
2017-03-13T22:30:31.867Z,40.09
2017-03-13T22:31:33.627Z,39.61
2017-03-13T22:32:35.368Z,39.70
2017-03-13T22:33:37.085Z,39.79
2017-03-13T22:34:38.786Z,39.61
2017-03-13T22:35:40.381Z,39.70
2017-03-13T22:36:42.244Z,39.59
2017-03-13T22:37:43.927Z,39.89
2017-03-13T22:38:45.605Z,39.70
2017-03-13T22:39:47.413Z,39.70
2017-03-13T22:40:49.091Z,39.61
2017-03-13T22:41:50.811Z,39.61
2017-03-13T22:42:52.459Z,39.59
2017-03-13T22:43:54.104Z,39.70
2017-03-13T22:44:55.657Z,39.61
2017-03-13T22:45:57.285Z,39.49
2017-03-13T22:46:59.004Z,39.89
2017-03-13T22:48:00.904Z,39.68
2017-03-13T22:49:02.546Z,39.87
2017-03-13T22:50:04.255Z,39.59
2017-03-13T22:51:05.889Z,39.68
2017-03-13T22:52:07.583Z,39.59
2017-03-13T22:53:09.550Z,39.68
2017-03-13T22:54:11.280Z,39.68
2017-03-13T22:55:13.004Z,39.97
2017-03-13T22:56:14.636Z,39.68
2017-03-13T22:57:16.401Z,39.68
2017-03-13T22:58:18.045Z,39.68
2017-03-13T22:59:19.605Z,39.78
2017-03-13T23:00:21.333Z,39.97
2017-03-13T23:01:22.937Z,39.68
2017-03-13T23:02:24.578Z,39.59
2017-03-13T23:03:26.161Z,39.68
2017-03-13T23:04:27.774Z,39.59
2017-03-13T23:05:29.429Z,39.87
2017-03-13T23:06:30.929Z,39.97
2017-03-13T23:07:32.609Z,39.87
2017-03-13T23:08:34.337Z,39.87
2017-03-13T23:09:36.023Z,39.87
2017-03-13T23:10:37.670Z,39.87
2017-03-13T23:11:39.254Z,39.87
2017-03-13T23:12:40.911Z,39.78
2017-03-13T23:13:42.528Z,39.97
2017-03-13T23:14:44.186Z,39.87
2017-03-13T23:15:45.747Z,39.97
2017-03-13T23:16:47.425Z,39.68
2017-03-13T23:17:49.068Z,39.87
2017-03-13T23:18:50.634Z,39.78
2017-03-13T23:19:52.264Z,39.97
2017-03-13T23:20:53.985Z,39.59
2017-03-13T23:21:55.699Z,14.60
2017-03-13T23:22:57.293Z,14.60
2017-03-13T23:23:58.976Z,14.60
2017-03-13T23:25:00.603Z,14.60
2017-03-13T23:26:02.327Z,14.60
2017-03-13T23:27:03.950Z,14.60
2017-03-13T23:28:05.550Z,14.60
2017-03-13T23:29:07.229Z,14.60
2017-03-13T23:30:08.914Z,14.60
2017-03-13T23:31:10.585Z,14.60
2017-03-13T23:32:12.177Z,14.60
2017-03-13T23:33:13.825Z,14.60
2017-03-13T23:34:15.437Z,14.60
2017-03-13T23:35:17.060Z,14.60
2017-03-13T23:36:18.724Z,14.60
2017-03-13T23:37:20.432Z,14.60
2017-03-13T23:38:22.098Z,14.60
2017-03-13T23:39:23.769Z,14.60
2017-03-13T23:40:25.355Z,14.60
2017-03-13T23:41:27.026Z,14.60
2017-03-13T23:42:28.705Z,14.60
2017-03-13T23:43:30.379Z,14.60
2017-03-13T23:44:32.060Z,14.60
2017-03-13T23:45:33.736Z,14.60
2017-03-13T23:46:35.390Z,14.60
2017-03-13T23:47:37.020Z,14.60
2017-03-13T23:48:38.594Z,14.60
2017-03-13T23:49:40.263Z,14.60
2017-03-13T23:50:41.840Z,14.60
2017-03-13T23:51:43.524Z,14.60
2017-03-13T23:52:45.190Z,14.60
2017-03-13T23:53:46.942Z,14.60
2017-03-13T23:54:48.526Z,14.60
2017-03-13T23:55:50.150Z,14.60
2017-03-13T23:56:51.753Z,14.60
2017-03-13T23:57:53.378Z,14.60
2017-03-13T23:58:54.982Z,14.60
2017-03-13T23:59:56.596Z,14.60
